Time;durP1;ratioP1;P1;durP2;ratioP2;P2;SDS_P1;SDS_P2;PMS_P1;PMS_P2;Temp;Humidity;BMP_temperature;BMP_pressure;BME280_temperature;BME280_humidity;BME280_pressure;Samples;Min_cycle;Max_cycle;Signal;HPM_P1;HPM_P2
2024/03/13 00:01:53;;;;;;;116.03;75.47;;;;;;;;;;5010790;28;20029;-70
2024/03/13 00:04:19;;;;;;;113.28;74.50;;;;;;;;;;5029189;28;20036;-68
2024/03/13 00:06:50;;;;;;;112.38;73.05;;;;;;;;;;5029696;28;20079;-70
2024/03/13 00:09:20;;;;;;;108.55;70.35;;;;;;;;;;5033266;28;20048;-69
2024/03/13 00:11:46;;;;;;;104.00;69.90;;;;;;;;;;5032234;28;20022;-70
2024/03/13 00:14:12;;;;;;;99.82;65.72;;;;;;;;;;5033274;28;20572;-70
2024/03/13 00:16:38;;;;;;;102.00;66.63;;;;;;;;;;5032947;28;20029;-70
2024/03/13 00:19:05;;;;;;;96.47;64.53;;;;;;;;;;5032082;28;20626;-69
2024/03/13 00:21:35;;;;;;;99.97;64.70;;;;;;;;;;5031968;28;20093;-70
2024/03/13 00:24:02;;;;;;;91.35;60.95;;;;;;;;;;5033137;28;20017;-68
2024/03/13 00:26:28;;;;;;;95.15;64.93;;;;;;;;;;5032951;28;20044;-68
2024/03/13 00:28:54;;;;;;;99.25;64.07;;;;;;;;;;5032578;28;20021;-68
2024/03/13 00:31:20;;;;;;;96.00;62.08;;;;;;;;;;5031846;28;20040;-69
2024/03/13 00:33:46;;;;;;;93.10;59.97;;;;;;;;;;5032729;28;20483;-68
2024/03/13 00:36:12;;;;;;;84.72;56.38;;;;;;;;;;5032846;28;20055;-68
2024/03/13 00:38:38;;;;;;;84.35;55.17;;;;;;;;;;5014849;28;20357;-68
2024/03/13 00:41:04;;;;;;;82.05;55.28;;;;;;;;;;5031520;28;20021;-68
2024/03/13 00:43:30;;;;;;;80.70;54.97;;;;;;;;;;5014693;28;20013;-68
2024/03/13 00:45:59;;;;;;;84.18;56.50;;;;;;;;;;5032456;28;20114;-69
2024/03/13 00:48:31;;;;;;;80.05;53.35;;;;;;;;;;5031521;28;20044;-70
2024/03/13 00:50:57;;;;;;;86.40;53.85;;;;;;;;;;5031825;28;20017;-70
2024/03/13 00:53:23;;;;;;;80.32;51.47;;;;;;;;;;5032053;28;20035;-70
2024/03/13 00:55:49;;;;;;;86.45;52.80;;;;;;;;;;5031684;28;20026;-71
2024/03/13 00:58:16;;;;;;;82.18;52.60;;;;;;;;;;5032676;28;20022;-71
2024/03/13 01:00:42;;;;;;;75.15;50.20;;;;;;;;;;5032224;28;20103;-71
2024/03/13 01:03:09;;;;;;;83.75;51.95;;;;;;;;;;5033230;28;20385;-70
2024/03/13 01:05:35;;;;;;;73.95;49.15;;;;;;;;;;5033313;28;20518;-69
2024/03/13 01:08:02;;;;;;;76.13;50.85;;;;;;;;;;5034010;28;20140;-69
2024/03/13 01:10:28;;;;;;;72.97;49.10;;;;;;;;;;5034850;28;20469;-70
2024/03/13 01:12:55;;;;;;;71.90;47.60;;;;;;;;;;5034724;28;20029;-71
2024/03/13 01:15:21;;;;;;;70.15;46.78;;;;;;;;;;5017057;28;20489;-71
2024/03/13 01:17:47;;;;;;;72.32;43.50;;;;;;;;;;5038300;28;20158;-72
2024/03/13 01:20:17;;;;;;;67.47;44.30;;;;;;;;;;5042156;28;20017;-71
2024/03/13 01:22:45;;;;;;;69.27;44.07;;;;;;;;;;5039248;28;20022;-69
2024/03/13 01:25:11;;;;;;;63.80;42.35;;;;;;;;;;5043619;28;20327;-69
2024/03/13 01:27:37;;;;;;;62.63;42.13;;;;;;;;;;5040383;28;20545;-68
2024/03/13 01:30:04;;;;;;;70.93;40.50;;;;;;;;;;5046000;28;20044;-68
2024/03/13 01:32:30;;;;;;;60.30;39.97;;;;;;;;;;5042088;28;20049;-68
2024/03/13 01:34:56;;;;;;;57.42;39.92;;;;;;;;;;5035188;28;20048;-69
2024/03/13 01:40:08;;;;;;;56.83;38.45;;;;;;;;;;5024128;28;20128;-68
2024/03/13 01:56:58;;;;;;;51.05;33.97;;;;;;;;;;5002600;28;20037;-68
2024/03/13 01:59:31;;;;;;;52.33;33.60;;;;;;;;;;5031048;28;20036;-68
2024/03/13 02:04:42;;;;;;;49.33;32.90;;;;;;;;;;5031124;28;20152;-69
2024/03/13 02:07:08;;;;;;;51.65;30.75;;;;;;;;;;5032045;28;20022;-67
2024/03/13 02:09:34;;;;;;;46.88;30.65;;;;;;;;;;5032020;28;20469;-66
2024/03/13 02:12:00;;;;;;;46.95;30.17;;;;;;;;;;5031848;28;20039;-66
2024/03/13 02:14:28;;;;;;;44.30;30.42;;;;;;;;;;5032405;28;20025;-66
2024/03/13 02:16:54;;;;;;;44.90;29.85;;;;;;;;;;5032236;28;20507;-67
2024/03/13 02:19:21;;;;;;;46.83;30.25;;;;;;;;;;5032345;28;20108;-67
2024/03/13 02:21:47;;;;;;;43.30;27.13;;;;;;;;;;5031254;28;20455;-69
2024/03/13 02:24:13;;;;;;;44.80;27.88;;;;;;;;;;5032396;28;20017;-69
2024/03/13 02:26:42;;;;;;;37.63;26.77;;;;;;;;;;5032154;28;20125;-70
2024/03/13 02:29:08;;;;;;;38.50;25.67;;;;;;;;;;5031954;28;20493;-70
2024/03/13 02:31:34;;;;;;;42.28;27.83;;;;;;;;;;5031060;28;20056;-67
2024/03/13 02:34:00;;;;;;;37.33;24.23;;;;;;;;;;5031946;28;20049;-69
2024/03/13 02:36:26;;;;;;;39.72;24.65;;;;;;;;;;5032055;28;20021;-68
2024/03/13 02:38:52;;;;;;;41.83;25.92;;;;;;;;;;5031917;28;20021;-71
2024/03/13 02:41:18;;;;;;;34.38;23.25;;;;;;;;;;5030843;28;20041;-70
2024/03/13 02:43:44;;;;;;;35.42;23.02;;;;;;;;;;5031683;28;20047;-69
2024/03/13 02:46:12;;;;;;;39.47;22.90;;;;;;;;;;5032134;28;20041;-69
2024/03/13 02:48:38;;;;;;;35.63;21.40;;;;;;;;;;5030777;28;20036;-69
2024/03/13 02:51:04;;;;;;;34.60;22.70;;;;;;;;;;5031019;28;20071;-70
2024/03/13 02:53:31;;;;;;;35.08;22.52;;;;;;;;;;5031799;28;20488;-71
2024/03/13 02:55:57;;;;;;;34.10;22.33;;;;;;;;;;5031822;28;20032;-71
2024/03/13 02:58:23;;;;;;;34.10;20.35;;;;;;;;;;5031824;28;20025;-70
2024/03/13 03:00:49;;;;;;;32.83;20.20;;;;;;;;;;5013096;28;20111;-70
2024/03/13 03:03:16;;;;;;;27.48;17.60;;;;;;;;;;5031375;28;20025;-70
2024/03/13 03:05:42;;;;;;;32.17;19.17;;;;;;;;;;5031651;28;20117;-69
2024/03/13 03:08:08;;;;;;;36.17;19.65;;;;;;;;;;5031432;28;20029;-68
2024/03/13 03:10:34;;;;;;;33.65;20.25;;;;;;;;;;5030879;28;20022;-66
2024/03/13 03:13:00;;;;;;;28.30;17.85;;;;;;;;;;5032140;28;20060;-68
2024/03/13 03:15:28;;;;;;;31.00;18.38;;;;;;;;;;5031314;28;20056;-68
2024/03/13 03:17:54;;;;;;;28.73;18.40;;;;;;;;;;5030309;28;20090;-70
2024/03/13 03:20:20;;;;;;;30.10;17.40;;;;;;;;;;5028625;28;20061;-71
2024/03/13 03:22:47;;;;;;;26.17;17.33;;;;;;;;;;5030407;28;20018;-71
2024/03/13 03:25:12;;;;;;;25.80;16.17;;;;;;;;;;5031209;28;20033;-69
2024/03/13 03:27:39;;;;;;;25.58;16.63;;;;;;;;;;5030905;28;20425;-69
2024/03/13 03:30:06;;;;;;;26.48;17.95;;;;;;;;;;5030966;28;20025;-69
2024/03/13 03:32:32;;;;;;;25.17;16.13;;;;;;;;;;5004209;28;20021;-70
2024/03/13 03:34:58;;;;;;;23.95;16.20;;;;;;;;;;5030831;28;20032;-69
2024/03/13 03:37:24;;;;;;;23.58;15.77;;;;;;;;;;5030357;28;20029;-69
2024/03/13 03:39:50;;;;;;;26.52;15.20;;;;;;;;;;5030199;28;20047;-69
2024/03/13 03:42:16;;;;;;;21.92;14.32;;;;;;;;;;5029138;28;20097;-69
2024/03/13 03:44:42;;;;;;;22.73;14.45;;;;;;;;;;5031199;28;20397;-68
2024/03/13 03:47:10;;;;;;;25.02;15.90;;;;;;;;;;5031064;28;20038;-70
2024/03/13 03:49:36;;;;;;;25.40;15.27;;;;;;;;;;5030636;28;20393;-69
2024/03/13 03:52:02;;;;;;;25.48;15.35;;;;;;;;;;5030057;28;20021;-70
2024/03/13 03:54:29;;;;;;;23.80;14.55;;;;;;;;;;5030921;28;20026;-69
2024/03/13 03:56:55;;;;;;;27.50;14.65;;;;;;;;;;5031231;28;20029;-72
2024/03/13 03:59:23;;;;;;;23.58;14.20;;;;;;;;;;5030853;28;20026;-69
2024/03/13 04:01:49;;;;;;;23.77;13.15;;;;;;;;;;5029838;28;20029;-69
2024/03/13 04:04:15;;;;;;;23.65;13.38;;;;;;;;;;5030967;28;20068;-68
2024/03/13 04:06:41;;;;;;;26.35;14.07;;;;;;;;;;5030570;28;20029;-68
2024/03/13 04:09:16;;;;;;;23.10;12.93;;;;;;;;;;5013158;28;20025;-68
2024/03/13 04:11:45;;;;;;;21.08;12.23;;;;;;;;;;5029103;28;20068;-68
2024/03/13 04:14:11;;;;;;;19.35;12.18;;;;;;;;;;5030368;28;20022;-68
2024/03/13 04:16:44;;;;;;;21.85;12.75;;;;;;;;;;5029370;28;20087;-69
2024/03/13 04:19:11;;;;;;;22.15;12.57;;;;;;;;;;5013552;28;20026;-69
2024/03/13 04:21:40;;;;;;;18.45;12.48;;;;;;;;;;5029501;28;20091;-70
2024/03/13 04:24:07;;;;;;;18.90;13.10;;;;;;;;;;5030614;28;20014;-72
2024/03/13 04:26:37;;;;;;;19.05;12.23;;;;;;;;;;5030613;28;20540;-70
2024/03/13 04:29:04;;;;;;;19.98;12.98;;;;;;;;;;5021260;28;20481;-71
2024/03/13 04:31:30;;;;;;;19.00;11.98;;;;;;;;;;5029614;28;20476;-72
2024/03/13 04:33:56;;;;;;;26.73;12.30;;;;;;;;;;5030258;28;20090;-70
2024/03/13 04:36:22;;;;;;;16.10;11.23;;;;;;;;;;5030292;28;20030;-71
2024/03/13 04:38:51;;;;;;;16.45;11.13;;;;;;;;;;5030442;28;20026;-71
2024/03/13 04:41:18;;;;;;;18.02;10.38;;;;;;;;;;5029400;28;20025;-72
2024/03/13 04:43:45;;;;;;;18.17;11.75;;;;;;;;;;5030188;28;20024;-71
2024/03/13 04:46:17;;;;;;;14.70;10.18;;;;;;;;;;5030199;28;20017;-70
2024/03/13 04:48:46;;;;;;;20.17;10.77;;;;;;;;;;5030310;28;20025;-68
2024/03/13 04:51:15;;;;;;;19.33;12.25;;;;;;;;;;5029380;28;20037;-69
2024/03/13 04:53:44;;;;;;;15.95;10.85;;;;;;;;;;5032006;28;20158;-68
2024/03/13 04:56:11;;;;;;;18.15;11.02;;;;;;;;;;5033535;28;20025;-68
2024/03/13 04:58:37;;;;;;;14.18;10.60;;;;;;;;;;5033787;28;20026;-68
2024/03/13 05:01:03;;;;;;;17.60;10.55;;;;;;;;;;5033012;28;20040;-70
2024/03/13 05:03:33;;;;;;;16.48;10.40;;;;;;;;;;5020806;28;20021;-70
2024/03/13 05:06:00;;;;;;;14.77;9.38;;;;;;;;;;5038249;28;20113;-70
2024/03/13 05:08:26;;;;;;;18.33;9.60;;;;;;;;;;5038389;28;20482;-70
2024/03/13 05:10:52;;;;;;;17.95;9.98;;;;;;;;;;5019350;28;20029;-69
2024/03/13 05:13:18;;;;;;;15.13;9.82;;;;;;;;;;5033452;28;20164;-67
2024/03/13 05:15:44;;;;;;;13.85;9.77;;;;;;;;;;5032440;28;20395;-68
2024/03/13 05:18:10;;;;;;;15.57;9.10;;;;;;;;;;5033647;28;20033;-68
2024/03/13 05:20:36;;;;;;;16.13;9.55;;;;;;;;;;5031642;28;20103;-68
2024/03/13 05:23:02;;;;;;;15.40;9.48;;;;;;;;;;5032809;28;20465;-68
2024/03/13 05:25:28;;;;;;;13.60;8.57;;;;;;;;;;5033113;28;20017;-70
2024/03/13 05:27:54;;;;;;;21.52;9.57;;;;;;;;;;5032359;28;21210;-69
2024/03/13 05:30:20;;;;;;;16.17;9.07;;;;;;;;;;5033172;28;20014;-71
2024/03/13 05:32:46;;;;;;;18.50;8.55;;;;;;;;;;5032914;28;20100;-66
2024/03/13 05:35:15;;;;;;;16.23;8.25;;;;;;;;;;5033563;28;20013;-66
2024/03/13 05:37:41;;;;;;;21.52;8.18;;;;;;;;;;5033132;28;20069;-69
2024/03/13 05:40:16;;;;;;;17.77;8.40;;;;;;;;;;5032791;28;20029;-70
2024/03/13 05:42:43;;;;;;;13.23;8.00;;;;;;;;;;5032603;28;20033;-73
2024/03/13 05:45:09;;;;;;;15.73;7.50;;;;;;;;;;5033187;28;20064;-67
2024/03/13 05:47:35;;;;;;;102.63;17.38;;;;;;;;;;5033256;28;20572;-63
2024/03/13 05:50:01;;;;;;;26.42;8.57;;;;;;;;;;5018560;28;20061;-63
2024/03/13 05:52:27;;;;;;;14.90;6.85;;;;;;;;;;5035303;28;20041;-63
2024/03/13 05:54:53;;;;;;;16.85;7.03;;;;;;;;;;5035966;28;20535;-63
2024/03/13 05:57:22;;;;;;;13.48;6.93;;;;;;;;;;5035328;28;20025;-63
2024/03/13 05:59:52;;;;;;;10.75;6.38;;;;;;;;;;5035317;28;20025;-63
2024/03/13 06:02:18;;;;;;;11.73;6.72;;;;;;;;;;5033872;28;20026;-63
2024/03/13 06:04:45;;;;;;;27.70;6.88;;;;;;;;;;5033973;28;20026;-64
2024/03/13 06:07:11;;;;;;;15.10;6.57;;;;;;;;;;5032487;28;20037;-65
2024/03/13 06:09:37;;;;;;;17.33;11.35;;;;;;;;;;5032654;28;20013;-65
2024/03/13 06:12:03;;;;;;;19.73;10.23;;;;;;;;;;5031531;28;20017;-63
2024/03/13 06:14:29;;;;;;;18.35;11.95;;;;;;;;;;5032034;28;20021;-64
2024/03/13 06:16:56;;;;;;;15.88;10.77;;;;;;;;;;5032198;28;20029;-64
2024/03/13 06:19:22;;;;;;;18.27;12.75;;;;;;;;;;5032349;28;20551;-64
2024/03/13 06:21:49;;;;;;;21.52;11.70;;;;;;;;;;5031247;28;20083;-64
2024/03/13 06:24:20;;;;;;;12.68;10.55;;;;;;;;;;5032241;28;20566;-64
2024/03/13 06:26:48;;;;;;;12.10;9.90;;;;;;;;;;5031046;28;20053;-64
2024/03/13 06:32:00;;;;;;;12.15;10.45;;;;;;;;;;5031871;28;20510;-65
2024/03/13 06:34:27;;;;;;;13.57;10.68;;;;;;;;;;5031913;28;20022;-64
2024/03/13 06:36:52;;;;;;;14.13;10.68;;;;;;;;;;5031876;28;20107;-66
2024/03/13 06:39:21;;;;;;;13.07;10.57;;;;;;;;;;5031840;28;20049;-66
2024/03/13 06:41:50;;;;;;;17.08;11.07;;;;;;;;;;5030639;28;20116;-66
2024/03/13 06:44:16;;;;;;;13.20;10.02;;;;;;;;;;5031988;28;20071;-66
2024/03/13 06:46:42;;;;;;;12.32;10.00;;;;;;;;;;5031358;28;20499;-66
2024/03/13 06:49:08;;;;;;;12.35;10.38;;;;;;;;;;5031786;28;20017;-66
2024/03/13 06:51:34;;;;;;;12.23;8.85;;;;;;;;;;5029851;28;20032;-66
2024/03/13 06:54:00;;;;;;;12.55;8.23;;;;;;;;;;5031571;28;20043;-66
2024/03/13 06:56:27;;;;;;;15.15;8.23;;;;;;;;;;5031445;28;20037;-66
2024/03/13 06:58:53;;;;;;;13.68;8.43;;;;;;;;;;5031272;28;20485;-66
2024/03/13 07:01:19;;;;;;;24.23;8.15;;;;;;;;;;5030267;28;20060;-66
2024/03/13 07:03:45;;;;;;;14.93;7.40;;;;;;;;;;5031356;28;20495;-66
2024/03/13 07:06:12;;;;;;;18.83;7.55;;;;;;;;;;5030235;28;20100;-66
2024/03/13 07:08:38;;;;;;;15.70;7.13;;;;;;;;;;5030635;28;20101;-66
2024/03/13 07:11:07;;;;;;;15.82;11.27;;;;;;;;;;5026763;28;20379;-65
2024/03/13 07:13:33;;;;;;;18.83;12.13;;;;;;;;;;5027002;28;20029;-65
2024/03/13 07:16:02;;;;;;;16.92;11.25;;;;;;;;;;5031144;28;20184;-64
2024/03/13 07:18:28;;;;;;;22.77;12.27;;;;;;;;;;5031736;28;20021;-65
2024/03/13 07:20:58;;;;;;;21.35;11.15;;;;;;;;;;5030745;28;20029;-65
2024/03/13 07:23:24;;;;;;;14.40;11.68;;;;;;;;;;5030339;28;20055;-65
2024/03/13 07:25:50;;;;;;;16.10;11.20;;;;;;;;;;5031486;28;20030;-65
2024/03/13 07:28:19;;;;;;;16.02;12.38;;;;;;;;;;5031504;28;20128;-65
2024/03/13 07:30:45;;;;;;;15.73;12.70;;;;;;;;;;5030934;28;20029;-64
2024/03/13 07:33:12;;;;;;;15.23;11.00;;;;;;;;;;5030943;28;20041;-65
2024/03/13 07:35:42;;;;;;;14.45;9.93;;;;;;;;;;5031594;28;20125;-65
2024/03/13 07:38:11;;;;;;;14.90;8.98;;;;;;;;;;5030507;28;20169;-65
2024/03/13 07:40:37;;;;;;;11.15;8.07;;;;;;;;;;5030700;28;20374;-65
2024/03/13 07:43:10;;;;;;;13.75;8.68;;;;;;;;;;5029641;28;20026;-65
2024/03/13 07:45:37;;;;;;;13.25;8.20;;;;;;;;;;5031041;28;20045;-65
2024/03/13 07:48:09;;;;;;;11.30;8.20;;;;;;;;;;5030846;28;20386;-65
2024/03/13 07:50:36;;;;;;;11.95;7.45;;;;;;;;;;5030696;28;20022;-65
2024/03/13 07:53:04;;;;;;;11.27;7.18;;;;;;;;;;5030683;28;20028;-65
2024/03/13 07:55:30;;;;;;;13.10;7.40;;;;;;;;;;5031123;28;20018;-65
2024/03/13 07:57:56;;;;;;;12.88;6.88;;;;;;;;;;5030888;28;20462;-65
2024/03/13 08:00:27;;;;;;;9.90;6.88;;;;;;;;;;5030669;28;20026;-65
2024/03/13 08:02:54;;;;;;;9.93;6.63;;;;;;;;;;5030750;28;20029;-65
2024/03/13 08:05:20;;;;;;;9.15;6.45;;;;;;;;;;5031132;28;20083;-65
2024/03/13 08:07:47;;;;;;;11.02;6.25;;;;;;;;;;5030748;28;20026;-65
2024/03/13 08:10:17;;;;;;;8.23;6.18;;;;;;;;;;5030285;28;20060;-65
2024/03/13 08:12:43;;;;;;;7.95;5.65;;;;;;;;;;5030035;28;20048;-65
2024/03/13 08:15:10;;;;;;;10.10;4.93;;;;;;;;;;5030609;28;20064;-65
2024/03/13 08:17:36;;;;;;;7.30;5.18;;;;;;;;;;5030630;28;20026;-65
2024/03/13 08:20:02;;;;;;;7.90;5.40;;;;;;;;;;5030337;28;20029;-65
2024/03/13 08:22:28;;;;;;;6.65;4.72;;;;;;;;;;5030150;28;20026;-65
2024/03/13 08:24:55;;;;;;;6.45;4.70;;;;;;;;;;5030606;28;20054;-66
2024/03/13 08:27:21;;;;;;;6.22;4.47;;;;;;;;;;5030520;28;20078;-65
2024/03/13 08:29:47;;;;;;;6.22;4.03;;;;;;;;;;5034717;28;20096;-65
2024/03/13 08:32:13;;;;;;;9.48;4.95;;;;;;;;;;5033848;28;20029;-65
2024/03/13 08:34:39;;;;;;;7.57;4.75;;;;;;;;;;5034165;28;20455;-66
2024/03/13 08:37:07;;;;;;;5.28;4.07;;;;;;;;;;5034263;28;20091;-65
2024/03/13 08:39:33;;;;;;;6.35;4.03;;;;;;;;;;5016387;28;20125;-65
2024/03/13 08:41:59;;;;;;;4.40;3.95;;;;;;;;;;5033455;28;20120;-65
2024/03/13 08:44:24;;;;;;;7.82;4.30;;;;;;;;;;5033250;28;20386;-65
2024/03/13 08:46:50;;;;;;;5.18;3.72;;;;;;;;;;5034281;28;20025;-65
2024/03/13 08:49:16;;;;;;;6.28;3.92;;;;;;;;;;5034282;28;20101;-65
2024/03/13 08:51:42;;;;;;;6.75;4.00;;;;;;;;;;5033838;28;20033;-64
2024/03/13 08:54:11;;;;;;;5.78;3.58;;;;;;;;;;5035629;28;20021;-65
2024/03/13 08:56:42;;;;;;;4.97;3.50;;;;;;;;;;5038107;28;20029;-65
2024/03/13 08:59:08;;;;;;;4.90;3.35;;;;;;;;;;5037211;28;20030;-65
2024/03/13 09:01:44;;;;;;;4.00;3.15;;;;;;;;;;5035228;28;20079;-65
2024/03/13 09:04:10;;;;;;;4.00;3.15;;;;;;;;;;5034923;28;20025;-65
2024/03/13 09:06:36;;;;;;;5.60;4.22;;;;;;;;;;5035095;28;20083;-65
2024/03/13 09:09:05;;;;;;;5.30;3.75;;;;;;;;;;5035171;28;20025;-65
2024/03/13 09:11:32;;;;;;;4.32;3.20;;;;;;;;;;5038194;28;20040;-64
2024/03/13 09:14:03;;;;;;;4.18;3.30;;;;;;;;;;5024511;28;20029;-65
2024/03/13 09:16:33;;;;;;;6.28;3.28;;;;;;;;;;5044154;28;20041;-65
2024/03/13 09:18:59;;;;;;;3.75;3.00;;;;;;;;;;5045170;28;20025;-64
2024/03/13 09:21:26;;;;;;;8.20;3.63;;;;;;;;;;5040338;28;20053;-65
2024/03/13 09:23:52;;;;;;;3.78;3.13;;;;;;;;;;5038594;28;20052;-64
2024/03/13 09:26:18;;;;;;;5.05;3.45;;;;;;;;;;5035815;28;20025;-65
2024/03/13 09:28:46;;;;;;;4.68;3.33;;;;;;;;;;5033306;28;20543;-65
2024/03/13 09:31:12;;;;;;;4.57;3.22;;;;;;;;;;5032761;28;20025;-64
2024/03/13 09:33:38;;;;;;;4.22;3.33;;;;;;;;;;5033629;28;20029;-65
2024/03/13 09:36:07;;;;;;;4.28;3.47;;;;;;;;;;5033406;28;20025;-64
2024/03/13 09:38:33;;;;;;;4.80;3.20;;;;;;;;;;5032959;28;20036;-65
2024/03/13 09:41:05;;;;;;;3.00;2.70;;;;;;;;;;5031474;28;20044;-64
2024/03/13 09:43:31;;;;;;;4.22;3.00;;;;;;;;;;5032209;28;20098;-64
2024/03/13 09:45:58;;;;;;;3.55;3.20;;;;;;;;;;5033345;28;20017;-65
2024/03/13 09:48:25;;;;;;;4.10;3.42;;;;;;;;;;5033040;28;20524;-65
2024/03/13 09:50:51;;;;;;;4.20;3.33;;;;;;;;;;5032353;28;20025;-64
2024/03/13 09:53:17;;;;;;;4.35;2.83;;;;;;;;;;5032535;28;20109;-65
2024/03/13 09:55:47;;;;;;;3.53;3.22;;;;;;;;;;5032730;28;20392;-65
2024/03/13 09:58:13;;;;;;;2.78;2.50;;;;;;;;;;5032732;28;20535;-65
2024/03/13 10:00:39;;;;;;;2.83;2.50;;;;;;;;;;5032425;28;20035;-65
2024/03/13 10:03:15;;;;;;;3.13;2.83;;;;;;;;;;5032344;28;20064;-65
2024/03/13 10:05:42;;;;;;;3.00;2.70;;;;;;;;;;5032993;28;20025;-65
2024/03/13 10:08:09;;;;;;;4.97;3.00;;;;;;;;;;5032889;28;20048;-65
2024/03/13 10:10:36;;;;;;;5.57;3.35;;;;;;;;;;5032306;28;20057;-65
2024/03/13 10:13:02;;;;;;;3.30;2.88;;;;;;;;;;5032381;28;20421;-65
2024/03/13 10:15:29;;;;;;;3.83;2.90;;;;;;;;;;5032562;28;20018;-65
2024/03/13 10:18:05;;;;;;;3.90;3.00;;;;;;;;;;5032603;28;20417;-65
2024/03/13 10:20:36;;;;;;;3.58;2.67;;;;;;;;;;5032187;28;20021;-65
2024/03/13 10:23:03;;;;;;;2.58;2.20;;;;;;;;;;5032418;28;20029;-65
2024/03/13 10:25:30;;;;;;;2.50;2.30;;;;;;;;;;5032425;28;20025;-65
2024/03/13 10:27:56;;;;;;;3.15;2.63;;;;;;;;;;5032414;28;20208;-65
2024/03/13 10:30:24;;;;;;;2.20;2.00;;;;;;;;;;5032120;28;20032;-65
2024/03/13 10:32:51;;;;;;;5.07;2.35;;;;;;;;;;5031700;28;20026;-65
2024/03/13 10:35:17;;;;;;;3.38;2.60;;;;;;;;;;5032665;28;20037;-65
2024/03/13 10:37:43;;;;;;;2.60;2.40;;;;;;;;;;5032362;28;20025;-65
2024/03/13 10:40:10;;;;;;;3.60;2.30;;;;;;;;;;5031961;28;20025;-65
2024/03/13 10:42:37;;;;;;;3.45;2.63;;;;;;;;;;5031460;28;20036;-65
2024/03/13 10:45:04;;;;;;;2.92;2.67;;;;;;;;;;5031113;28;20248;-65
2024/03/13 10:47:31;;;;;;;2.97;2.67;;;;;;;;;;5014232;28;20018;-65
2024/03/13 10:49:57;;;;;;;3.30;2.58;;;;;;;;;;5031551;28;20474;-65
2024/03/13 10:52:23;;;;;;;2.28;1.98;;;;;;;;;;5030855;28;20056;-65
2024/03/13 10:54:49;;;;;;;3.42;2.67;;;;;;;;;;5031783;28;20026;-65
2024/03/13 10:57:18;;;;;;;3.28;2.55;;;;;;;;;;5031809;28;20460;-65
2024/03/13 10:59:47;;;;;;;2.75;2.42;;;;;;;;;;5031495;28;20024;-65
2024/03/13 11:02:14;;;;;;;3.13;2.47;;;;;;;;;;5031027;28;20039;-65
2024/03/13 11:04:41;;;;;;;3.03;2.72;;;;;;;;;;5032038;28;20128;-65
2024/03/13 11:07:15;;;;;;;2.25;2.03;;;;;;;;;;5031831;28;20029;-65
2024/03/13 11:09:41;;;;;;;3.03;2.28;;;;;;;;;;5031800;28;20022;-65
2024/03/13 11:12:19;;;;;;;2.90;2.30;;;;;;;;;;5030501;28;20041;-65
2024/03/13 11:14:52;;;;;;;3.75;2.40;;;;;;;;;;5031696;28;20029;-65
2024/03/13 11:17:22;;;;;;;3.65;2.15;;;;;;;;;;5031672;28;20171;-65
2024/03/13 11:20:00;;;;;;;2.38;2.17;;;;;;;;;;5031376;28;20025;-65
2024/03/13 11:22:28;;;;;;;2.60;2.40;;;;;;;;;;5030575;28;20643;-66
2024/03/13 11:24:55;;;;;;;2.40;2.20;;;;;;;;;;5031111;28;20049;-65
2024/03/13 11:27:23;;;;;;;2.45;2.25;;;;;;;;;;5031120;28;20051;-65
2024/03/13 11:29:50;;;;;;;3.08;2.78;;;;;;;;;;5030978;28;20026;-65
2024/03/13 11:32:16;;;;;;;2.65;2.45;;;;;;;;;;5030212;28;20100;-65
2024/03/13 11:34:42;;;;;;;3.83;2.75;;;;;;;;;;5030829;28;20400;-65
2024/03/13 11:37:10;;;;;;;3.33;2.58;;;;;;;;;;5030707;28;20492;-65
2024/03/13 11:39:38;;;;;;;3.05;2.20;;;;;;;;;;5030663;28;20141;-65
2024/03/13 11:42:14;;;;;;;2.60;2.40;;;;;;;;;;5029708;28;20033;-65
2024/03/13 11:44:49;;;;;;;3.08;2.28;;;;;;;;;;5030040;28;20029;-65
2024/03/13 11:47:16;;;;;;;2.90;2.58;;;;;;;;;;5030550;28;20032;-65
2024/03/13 11:49:42;;;;;;;2.45;2.25;;;;;;;;;;5030758;28;20021;-65
2024/03/13 11:52:08;;;;;;;3.40;2.38;;;;;;;;;;5030078;28;20036;-65
2024/03/13 11:54:39;;;;;;;3.20;2.42;;;;;;;;;;5030496;28;20022;-64
2024/03/13 11:57:14;;;;;;;2.60;2.40;;;;;;;;;;5030639;28;20026;-65
2024/03/13 11:59:40;;;;;;;2.42;2.22;;;;;;;;;;5030283;28;20260;-65
2024/03/13 12:02:26;;;;;;;3.40;2.35;;;;;;;;;;5029687;28;20478;-64
2024/03/13 12:04:52;;;;;;;4.00;2.50;;;;;;;;;;5034717;28;20022;-65
2024/03/13 12:07:18;;;;;;;3.38;2.42;;;;;;;;;;5034414;28;20113;-65
2024/03/13 12:09:44;;;;;;;4.72;2.70;;;;;;;;;;5034357;28;20025;-65
2024/03/13 12:12:13;;;;;;;2.28;2.03;;;;;;;;;;5033575;28;20079;-64
2024/03/13 12:14:43;;;;;;;2.92;2.25;;;;;;;;;;5033886;28;21292;-64
2024/03/13 12:17:10;;;;;;;2.63;2.33;;;;;;;;;;5032452;28;20017;-65
2024/03/13 12:19:37;;;;;;;3.10;2.42;;;;;;;;;;5034271;28;20434;-65
2024/03/13 12:22:03;;;;;;;2.35;2.15;;;;;;;;;;5033522;28;20366;-65
2024/03/13 12:24:29;;;;;;;2.65;2.45;;;;;;;;;;5034181;28;20025;-65
2024/03/13 12:26:56;;;;;;;2.97;2.47;;;;;;;;;;5033812;28;20037;-65
2024/03/13 12:29:22;;;;;;;2.58;2.38;;;;;;;;;;5033972;28;20126;-66
2024/03/13 12:31:49;;;;;;;3.38;2.40;;;;;;;;;;5033297;28;20026;-65
2024/03/13 12:34:18;;;;;;;2.40;2.20;;;;;;;;;;5033678;28;20151;-65
2024/03/13 12:36:44;;;;;;;2.85;2.50;;;;;;;;;;5033725;28;20049;-65
2024/03/13 12:39:10;;;;;;;2.63;2.05;;;;;;;;;;5032411;28;20398;-65
2024/03/13 12:41:40;;;;;;;2.42;2.13;;;;;;;;;;5032832;28;20034;-65
2024/03/13 12:44:06;;;;;;;2.63;2.15;;;;;;;;;;5031192;28;20030;-65
2024/03/13 12:46:32;;;;;;;2.70;2.50;;;;;;;;;;5031823;28;20030;-65
2024/03/13 12:48:58;;;;;;;2.17;2.03;;;;;;;;;;5032375;28;20148;-65
2024/03/13 12:51:27;;;;;;;2.67;2.47;;;;;;;;;;5033058;28;20037;-64
2024/03/13 12:53:53;;;;;;;3.30;1.80;;;;;;;;;;5032470;28;20035;-66
2024/03/13 12:56:19;;;;;;;6.78;2.25;;;;;;;;;;5033728;28;20426;-65
2024/03/13 12:58:46;;;;;;;3.55;2.67;;;;;;;;;;5033637;28;20113;-65
2024/03/13 13:01:13;;;;;;;2.75;2.35;;;;;;;;;;5013402;28;20107;-65
2024/03/13 13:03:40;;;;;;;3.78;2.40;;;;;;;;;;5033162;28;20026;-65
2024/03/13 13:06:13;;;;;;;2.33;2.08;;;;;;;;;;5031653;28;20381;-66
2024/03/13 13:08:41;;;;;;;3.33;2.35;;;;;;;;;;5033712;28;20025;-65
2024/03/13 13:11:09;;;;;;;6.88;2.88;;;;;;;;;;5032599;28;20032;-65
2024/03/13 13:13:35;;;;;;;4.22;2.50;;;;;;;;;;5032386;28;20037;-65
2024/03/13 13:16:05;;;;;;;4.15;2.47;;;;;;;;;;5033066;28;20022;-65
2024/03/13 13:18:32;;;;;;;4.20;2.60;;;;;;;;;;5033241;28;20029;-66
2024/03/13 13:20:58;;;;;;;3.13;2.45;;;;;;;;;;5032334;28;20025;-64
2024/03/13 13:23:24;;;;;;;5.40;2.78;;;;;;;;;;5032588;28;20069;-65
2024/03/13 13:25:50;;;;;;;8.43;2.88;;;;;;;;;;5032998;28;20041;-65
2024/03/13 13:28:17;;;;;;;3.95;2.08;;;;;;;;;;5033063;28;20022;-65
2024/03/13 13:30:45;;;;;;;4.68;2.38;;;;;;;;;;5032801;28;20018;-65
2024/03/13 13:33:11;;;;;;;2.40;1.90;;;;;;;;;;5032423;28;20393;-65
2024/03/13 13:35:38;;;;;;;7.38;2.45;;;;;;;;;;5032775;28;20025;-66
2024/03/13 13:38:05;;;;;;;5.80;2.45;;;;;;;;;;5032744;28;20025;-66
2024/03/13 13:40:31;;;;;;;2.95;2.25;;;;;;;;;;5032322;28;20087;-65
2024/03/13 13:42:57;;;;;;;5.03;2.10;;;;;;;;;;5032299;28;20030;-65
2024/03/13 13:45:23;;;;;;;3.30;2.08;;;;;;;;;;5033490;28;20036;-67
2024/03/13 13:47:52;;;;;;;4.68;2.65;;;;;;;;;;5032522;28;20025;-66
2024/03/13 13:50:18;;;;;;;3.15;2.10;;;;;;;;;;5032686;28;20085;-67
2024/03/13 13:52:47;;;;;;;3.30;2.40;;;;;;;;;;5032077;28;20025;-66
2024/03/13 13:55:15;;;;;;;2.50;2.17;;;;;;;;;;5032671;28;20489;-67
2024/03/13 13:57:42;;;;;;;3.20;2.25;;;;;;;;;;5032780;28;20086;-66
2024/03/13 14:00:15;;;;;;;3.28;2.05;;;;;;;;;;5032320;28;20097;-67
2024/03/13 14:02:41;;;;;;;2.50;2.00;;;;;;;;;;5031397;28;20029;-67
2024/03/13 14:05:10;;;;;;;2.28;1.95;;;;;;;;;;5032647;28;20025;-67
2024/03/13 14:07:36;;;;;;;2.10;1.90;;;;;;;;;;5032514;28;20111;-67
2024/03/13 14:10:06;;;;;;;4.53;2.33;;;;;;;;;;5032554;28;20099;-67
2024/03/13 14:12:32;;;;;;;4.18;2.40;;;;;;;;;;5032403;28;20025;-66
2024/03/13 14:15:02;;;;;;;3.40;1.92;;;;;;;;;;5032612;28;20121;-67
2024/03/13 14:17:33;;;;;;;2.63;2.40;;;;;;;;;;5032486;28;20039;-66
2024/03/13 14:19:59;;;;;;;3.60;2.15;;;;;;;;;;5032461;28;20489;-67
2024/03/13 14:22:25;;;;;;;3.05;2.28;;;;;;;;;;5032051;28;20036;-64
2024/03/13 14:24:54;;;;;;;3.22;2.45;;;;;;;;;;5032537;28;20017;-65
2024/03/13 14:27:20;;;;;;;5.47;2.40;;;;;;;;;;5031997;28;20107;-66
2024/03/13 14:29:47;;;;;;;5.57;2.13;;;;;;;;;;5032355;28;20477;-67
2024/03/13 14:32:13;;;;;;;7.00;2.55;;;;;;;;;;5031675;28;20084;-68
2024/03/13 14:34:39;;;;;;;3.90;2.42;;;;;;;;;;5032527;28;20512;-67
2024/03/13 14:37:14;;;;;;;5.38;2.28;;;;;;;;;;5032269;28;20029;-66
2024/03/13 14:39:40;;;;;;;5.35;2.55;;;;;;;;;;5032309;28;20053;-66
2024/03/13 14:42:06;;;;;;;18.63;3.50;;;;;;;;;;5031044;28;20484;-66
2024/03/13 14:44:32;;;;;;;8.60;2.50;;;;;;;;;;5032081;28;20504;-66
2024/03/13 14:46:58;;;;;;;7.78;2.40;;;;;;;;;;5031489;28;20021;-66
2024/03/13 14:49:24;;;;;;;5.70;1.95;;;;;;;;;;5032300;28;20022;-67
2024/03/13 14:51:50;;;;;;;5.70;2.47;;;;;;;;;;5031189;28;20496;-66
2024/03/13 14:54:16;;;;;;;7.57;2.45;;;;;;;;;;5031931;28;20017;-66